Time;durP1;ratioP1;P1;durP2;ratioP2;P2;SDS_P1;SDS_P2;PMS_P1;PMS_P2;Temp;Humidity;BMP_temperature;BMP_pressure;BME280_temperature;BME280_humidity;BME280_pressure;Samples;Min_cycle;Max_cycle;Signal;HPM_P1;HPM_P2
2023/03/07 00:00:25;;;;;;;60.53;23.20;;;3.90;99.90;;;;;;6167936;23;20025;-81
2023/03/07 00:02:52;;;;;;;56.70;22.73;;;4.00;99.90;;;;;;6124507;23;20010;-81
2023/03/07 00:05:23;;;;;;;55.53;21.50;;;3.80;99.90;;;;;;6145750;23;20041;-81
2023/03/07 00:07:50;;;;;;;55.92;22.75;;;3.70;99.90;;;;;;6119417;23;20078;-81
2023/03/07 00:10:17;;;;;;;52.78;22.55;;;3.80;99.90;;;;;;6171711;23;20030;-82
2023/03/07 00:12:45;;;;;;;57.80;22.70;;;3.90;99.90;;;;;;6124239;23;20021;-81
2023/03/07 00:15:12;;;;;;;49.83;20.33;;;3.80;99.90;;;;;;6150669;23;20033;-81
2023/03/07 00:17:40;;;;;;;51.97;20.08;;;3.60;99.90;;;;;;6150992;23;20077;-81
2023/03/07 00:20:13;;;;;;;56.83;21.27;;;3.70;99.90;;;;;;6149684;23;20018;-82
2023/03/07 00:22:42;;;;;;;61.63;20.95;;;3.30;99.90;;;;;;6151256;23;20008;-82
2023/03/07 00:25:09;;;;;;;54.13;20.63;;;3.70;99.90;;;;;;6128134;23;19998;-81
2023/03/07 00:33:29;;;;;;;53.38;20.92;;;3.70;99.90;;;;;;6199301;23;20017;-80
2023/03/07 00:35:59;;;;;;;52.78;21.40;;;3.40;99.90;;;;;;6184842;23;20025;-80
2023/03/07 00:38:29;;;;;;;59.28;21.33;;;2.80;99.90;;;;;;6181403;23;20017;-80
2023/03/07 00:41:01;;;;;;;59.80;21.83;;;3.60;99.90;;;;;;6171006;23;20048;-80
2023/03/07 00:43:29;;;;;;;63.22;22.88;;;3.60;99.90;;;;;;6199057;23;20017;-80
2023/03/07 01:48:49;;;;;;;52.25;21.00;;;3.30;99.90;;;;;;6134193;23;20128;31
2023/03/07 01:51:31;;;;;;;61.17;24.17;;;3.30;99.90;;;;;;6119054;23;20038;-81
2023/03/07 01:54:08;;;;;;;60.28;23.73;;;2.80;99.90;;;;;;6097921;23;20033;-81
2023/03/07 01:56:36;;;;;;;;;;;3.10;99.90;;;;;;6069089;23;19998;-81
2023/03/07 01:59:05;;;;;;;57.05;22.17;;;3.20;99.90;;;;;;6093423;23;19933;-81
2023/03/07 02:01:33;;;;;;;49.40;19.55;;;3.20;99.90;;;;;;6094878;23;20030;-81
2023/03/07 02:04:25;;;;;;;51.17;20.63;;;3.20;99.90;;;;;;6120698;23;20014;-81
2023/03/07 02:06:54;;;;;;;46.60;18.77;;;2.90;99.90;;;;;;6074293;23;20006;-80
2023/03/07 02:09:24;;;;;;;47.38;19.73;;;2.90;99.90;;;;;;6098469;23;20025;-81
2023/03/07 02:11:55;;;;;;;51.22;20.05;;;3.20;99.90;;;;;;6124252;23;20018;-81
2023/03/07 02:21:57;;;;;;;48.38;18.80;;;3.20;99.90;;;;;;6166396;23;20052;-81
2023/03/07 02:55:27;;;;;;;45.47;19.40;;;3.30;99.90;;;;;;6117619;23;20037;-80
2023/03/07 02:57:59;;;;;;;47.83;17.92;;;3.20;99.90;;;;;;6118975;23;20033;-81
2023/03/07 03:00:26;;;;;;;51.50;19.60;;;3.10;99.90;;;;;;6073875;23;20015;-82
2023/03/07 03:02:54;;;;;;;47.58;18.67;;;3.10;99.90;;;;;;6119340;23;20022;-80
2023/03/07 03:05:21;;;;;;;50.20;18.77;;;3.20;99.90;;;;;;6096296;23;20030;-81
2023/03/07 03:07:51;;;;;;;48.40;17.70;;;3.20;99.90;;;;;;6099491;23;20007;-79
2023/03/07 03:10:18;;;;;;;49.78;18.20;;;3.20;99.90;;;;;;6100222;23;20015;-80
2023/03/07 03:12:49;;;;;;;48.90;18.50;;;3.20;99.90;;;;;;6100129;23;20014;-80
2023/03/07 03:15:20;;;;;;;51.20;19.65;;;2.90;99.90;;;;;;6123742;23;20054;-80
2023/03/07 03:17:53;;;;;;;56.88;20.30;;;3.00;99.90;;;;;;6094816;23;20003;-80
2023/03/07 03:20:21;;;;;;;49.97;18.88;;;3.10;99.90;;;;;;6070706;23;20009;-80
2023/03/07 03:22:51;;;;;;;51.55;18.98;;;3.10;99.90;;;;;;6070275;23;20011;-80
2023/03/07 03:25:22;;;;;;;53.30;19.98;;;3.20;99.90;;;;;;6048143;23;20010;-82
2023/03/07 03:27:50;;;;;;;51.88;18.42;;;3.20;99.90;;;;;;6070299;23;20051;-80
2023/03/07 03:30:18;;;;;;;48.88;19.80;;;3.20;99.90;;;;;;6046687;23;20031;-80
2023/03/07 03:56:57;;;;;;;49.30;19.08;;;3.20;99.90;;;;;;6182259;23;20024;-81
2023/03/07 04:42:10;;;;;;;46.08;17.33;;;3.00;99.90;;;;;;6191652;23;20054;-81
2023/03/07 04:44:37;;;;;;;49.33;17.48;;;3.00;99.90;;;;;;6213229;23;20017;-81
2023/03/07 04:47:05;;;;;;;44.97;18.05;;;2.90;99.90;;;;;;6191370;23;20055;-81
2023/03/07 04:50:05;;;;;;;44.97;17.65;;;2.70;99.90;;;;;;6223528;23;20015;-81
2023/03/07 04:52:35;;;;;;;50.33;18.20;;;3.00;99.90;;;;;;6191551;23;20001;-81
2023/03/07 05:14:44;;;;;;;43.70;17.80;;;2.90;99.90;;;;;;6176268;23;1231173;-81
2023/03/07 05:17:11;;;;;;;39.95;16.88;;;2.80;99.90;;;;;;6188050;23;20013;-81
2023/03/07 05:19:39;;;;;;;43.50;17.10;;;2.80;99.90;;;;;;6185755;23;20114;-80
2023/03/07 05:22:06;;;;;;;39.58;16.50;;;2.80;99.90;;;;;;6213147;23;20019;-81
2023/03/07 05:24:34;;;;;;;45.88;17.58;;;2.80;99.90;;;;;;6189112;23;20013;-81
2023/03/07 05:27:04;;;;;;;47.85;16.52;;;2.60;99.90;;;;;;6186592;23;20021;-81
2023/03/07 05:29:32;;;;;;;41.45;17.45;;;2.80;99.90;;;;;;6188334;23;20021;-80
2023/03/07 05:32:00;;;;;;;46.20;17.85;;;3.00;99.90;;;;;;6189450;23;20399;-80
2023/03/07 05:34:28;;;;;;;50.00;19.45;;;2.90;99.90;;;;;;6164008;23;20020;-80
2023/03/07 05:36:57;;;;;;;48.00;17.90;;;3.10;99.90;;;;;;6166197;23;20485;-81
2023/03/07 05:39:26;;;;;;;45.40;16.35;;;2.90;99.90;;;;;;6166153;23;20017;-80
2023/03/07 05:41:57;;;;;;;45.47;18.75;;;2.80;99.90;;;;;;6195080;23;20028;-81
2023/03/07 05:44:24;;;;;;;53.83;20.20;;;2.80;99.90;;;;;;6175259;23;20515;-81
2023/03/07 05:46:54;;;;;;;54.45;19.63;;;3.00;99.90;;;;;;6200047;23;20084;-80
2023/03/07 05:49:26;;;;;;;48.03;18.27;;;3.00;99.90;;;;;;6171139;23;20017;-81
2023/03/07 05:51:53;;;;;;;67.60;24.35;;;2.90;99.90;;;;;;6193745;23;20025;-81
2023/03/07 05:54:21;;;;;;;70.50;24.10;;;2.90;99.90;;;;;;6170469;23;20048;-81
2023/03/07 05:56:48;;;;;;;69.40;24.05;;;2.90;99.90;;;;;;6170681;23;20044;-81
2023/03/07 05:59:19;;;;;;;70.00;23.98;;;2.90;99.90;;;;;;6198026;23;20051;-81
2023/03/07 06:01:49;;;;;;;55.20;20.67;;;2.90;99.90;;;;;;6204090;23;20021;-81
2023/03/07 06:04:17;;;;;;;53.97;20.50;;;2.90;99.90;;;;;;6204662;23;20076;-81
2023/03/07 06:06:45;;;;;;;58.42;20.58;;;3.10;99.90;;;;;;6180086;23;20052;-81
2023/03/07 06:09:15;;;;;;;49.88;19.75;;;3.10;99.90;;;;;;6177479;23;20086;-81
2023/03/07 06:11:43;;;;;;;54.47;19.02;;;3.00;99.90;;;;;;6178470;23;20017;-81
2023/03/07 06:14:10;;;;;;;58.00;23.33;;;3.00;99.90;;;;;;6200856;23;20021;-81
2023/03/07 06:16:40;;;;;;;55.33;20.60;;;3.20;99.90;;;;;;6178743;23;20036;-81
2023/03/07 06:19:08;;;;;;;50.97;20.52;;;3.20;99.90;;;;;;6204155;23;20017;-81
2023/03/07 06:21:36;;;;;;;57.33;21.23;;;3.30;99.90;;;;;;6203183;23;20028;-81
2023/03/07 06:24:06;;;;;;;51.10;21.27;;;3.40;99.90;;;;;;6198648;23;20060;-81
2023/03/07 06:26:33;;;;;;;57.60;19.95;;;3.20;99.90;;;;;;6176746;23;20020;-81
2023/03/07 06:29:01;;;;;;;54.22;21.00;;;3.40;99.90;;;;;;6176867;23;20056;-81
2023/03/07 06:31:29;;;;;;;47.22;18.63;;;3.40;99.90;;;;;;6200400;23;20028;-81
2023/03/07 06:33:56;;;;;;;58.90;19.15;;;3.50;99.90;;;;;;6167623;23;20017;-81
2023/03/07 06:36:25;;;;;;;62.25;23.33;;;3.50;99.90;;;;;;6173058;23;20017;-81
2023/03/07 06:38:56;;;;;;;63.63;22.80;;;3.30;99.90;;;;;;6172928;23;20017;-81
2023/03/07 06:41:23;;;;;;;54.80;20.77;;;3.60;99.90;;;;;;6169049;23;20055;-80
2023/03/07 06:43:53;;;;;;;56.30;21.45;;;3.60;99.90;;;;;;6174560;23;20017;-81
2023/03/07 06:49:42;;;;;;;51.47;21.63;;;3.80;99.90;;;;;;6195738;23;20032;-81
2023/03/07 06:52:09;;;;;;;50.65;20.50;;;3.70;99.90;;;;;;6198866;23;20024;-81
2023/03/07 06:54:37;;;;;;;56.55;19.60;;;3.80;99.90;;;;;;6173481;23;20020;-81
2023/03/07 06:57:05;;;;;;;51.42;19.27;;;3.90;99.90;;;;;;6186593;23;20364;-81
2023/03/07 06:59:33;;;;;;;55.25;20.90;;;3.80;99.90;;;;;;6165206;23;20329;-81
2023/03/07 07:08:58;;;;;;;51.75;19.65;;;4.10;99.90;;;;;;6107558;23;20061;31
2023/03/07 07:11:32;;;;;;;53.72;20.02;;;4.20;99.90;;;;;;6038451;23;20382;-81
2023/03/07 07:14:01;;;;;;;55.33;20.27;;;4.20;99.90;;;;;;6085266;23;20061;-81
2023/03/07 07:16:28;;;;;;;57.42;21.35;;;4.20;99.90;;;;;;6092284;23;20026;-81
2023/03/07 07:18:56;;;;;;;50.30;21.67;;;4.30;99.90;;;;;;6066064;23;20034;-81
2023/03/07 07:21:24;;;;;;;56.05;22.10;;;4.20;99.90;;;;;;6040597;23;20176;-80
2023/03/07 07:23:51;;;;;;;53.60;21.13;;;4.40;99.90;;;;;;6089893;23;20037;-81
2023/03/07 07:26:18;;;;;;;53.08;19.63;;;4.40;99.90;;;;;;6063277;23;20460;-80
2023/03/07 07:28:46;;;;;;;58.97;23.42;;;4.40;99.90;;;;;;6083246;23;20462;-81
2023/03/07 07:31:13;;;;;;;57.00;23.88;;;4.50;99.90;;;;;;6085431;23;20027;-81
2023/03/07 07:33:41;;;;;;;60.33;24.35;;;4.70;99.90;;;;;;6086480;23;20550;-81
2023/03/07 07:36:09;;;;;;;60.72;24.85;;;4.80;99.90;;;;;;6096080;23;20049;-81
2023/03/07 07:38:38;;;;;;;61.90;23.60;;;4.80;99.90;;;;;;6078980;23;20552;-81
2023/03/07 07:41:05;;;;;;;47.25;20.33;;;4.90;99.90;;;;;;6119523;23;20052;-81
2023/03/07 07:43:33;;;;;;;51.45;21.15;;;5.00;99.90;;;;;;6113190;23;20053;-81
2023/03/07 07:46:18;;;;;;;50.10;19.23;;;5.00;99.90;;;;;;6110014;23;20022;-81
2023/03/07 07:51:50;;;;;;;47.33;20.23;;;5.10;99.90;;;;;;6116797;23;20113;-80
2023/03/07 07:54:17;;;;;;;42.15;18.63;;;4.90;99.90;;;;;;6122164;23;20021;-80
2023/03/07 07:59:49;;;;;;;43.55;18.77;;;5.30;99.90;;;;;;6167545;23;20039;-80
2023/03/07 08:02:37;;;;;;;46.30;18.92;;;5.30;99.90;;;;;;6158193;23;20990;31
2023/03/07 08:05:09;;;;;;;43.60;18.45;;;5.40;99.90;;;;;;6111644;23;20098;-79
2023/03/07 08:14:59;;;;;;;34.92;16.80;;;5.60;99.90;;;;;;6200703;23;20059;-81
2023/03/07 08:18:51;;;;;;;38.83;16.08;;;5.60;99.90;;;;;;6214774;23;20035;-80
2023/03/07 08:21:18;;;;;;;47.67;19.38;;;5.70;99.90;;;;;;6119297;23;20541;-80
2023/03/07 08:23:49;;;;;;;37.83;16.00;;;5.80;99.90;;;;;;6096017;23;20452;-80
2023/03/07 08:26:16;;;;;;;45.25;17.55;;;5.60;99.90;;;;;;6100254;23;20269;-80
2023/03/07 08:28:49;;;;;;;39.90;14.77;;;6.00;99.90;;;;;;6095516;23;20021;-80
2023/03/07 08:31:17;;;;;;;;;;;5.90;99.90;;;;;;6132437;23;20037;-80
2023/03/07 08:33:47;;;;;;;46.88;16.98;;;6.00;99.90;;;;;;6166795;23;19968;-80
2023/03/07 08:36:14;;;;;;;40.58;15.90;;;6.00;99.90;;;;;;6190580;23;20020;-80
2023/03/07 08:41:54;;;;;;;31.02;12.65;;;6.00;99.90;;;;;;6123827;23;20025;-80
2023/03/07 08:44:21;;;;;;;35.42;13.15;;;6.20;98.80;;;;;;6143874;23;20031;-80
2023/03/07 08:46:48;;;;;;;45.15;18.70;;;6.20;97.70;;;;;;6168543;23;20033;-80
2023/03/07 08:49:16;;;;;;;49.75;21.75;;;6.30;97.00;;;;;;6150942;23;20153;-80
2023/03/07 08:51:47;;;;;;;30.40;13.20;;;6.40;96.60;;;;;;6152057;23;20017;-80
2023/03/07 08:54:17;;;;;;;27.98;11.48;;;6.40;96.50;;;;;;6152389;23;20013;-80
2023/03/07 08:56:44;;;;;;;35.17;13.13;;;6.50;95.60;;;;;;6125079;23;20027;-80
2023/03/07 08:59:11;;;;;;;36.50;13.98;;;6.40;95.20;;;;;;6157809;23;20420;-80
2023/03/07 09:01:42;;;;;;;28.63;11.70;;;6.50;95.40;;;;;;6183279;23;20021;-80
2023/03/07 09:04:09;;;;;;;30.02;10.23;;;6.50;94.30;;;;;;6127460;23;20542;-79
2023/03/07 09:06:36;;;;;;;25.98;9.30;;;6.60;93.60;;;;;;6146517;23;20441;-79
2023/03/07 09:09:04;;;;;;;26.58;10.23;;;6.50;92.20;;;;;;6120596;23;20044;-80
2023/03/07 09:11:32;;;;;;;26.45;9.60;;;6.50;92.00;;;;;;6142898;23;20116;-80
2023/03/07 09:14:02;;;;;;;21.02;9.32;;;6.80;90.90;;;;;;6148239;23;20021;-80
2023/03/07 09:16:29;;;;;;;23.50;9.65;;;6.70;90.40;;;;;;6151973;23;20112;-80
2023/03/07 09:18:57;;;;;;;23.50;9.02;;;6.80;90.50;;;;;;6155097;23;20025;-80
2023/03/07 09:21:24;;;;;;;29.52;14.55;;;6.80;91.10;;;;;;6167220;23;20123;-80
2023/03/07 09:23:51;;;;;;;27.58;10.63;;;7.00;90.90;;;;;;6148211;23;20067;-80
2023/03/07 09:26:21;;;;;;;22.10;10.02;;;7.20;90.90;;;;;;6155276;23;20052;-80
2023/03/07 09:29:15;;;;;;;25.27;9.38;;;7.20;90.50;;;;;;6133166;23;20026;-79
2023/03/07 09:31:43;;;;;;;22.45;9.57;;;7.30;88.90;;;;;;6107488;23;19998;-81
2023/03/07 09:34:11;;;;;;;16.83;7.03;;;7.50;88.30;;;;;;6128112;23;20053;-80
2023/03/07 09:36:43;;;;;;;18.08;8.10;;;7.40;84.40;;;;;;6125740;23;20065;-80
2023/03/07 09:39:15;;;;;;;21.73;9.27;;;7.30;83.90;;;;;;6104741;23;20033;-80
2023/03/07 09:46:24;;;;;;;27.65;13.38;;;7.70;83.60;;;;;;6204786;23;20150;-80
2023/03/07 09:49:08;;;;;;;23.70;10.20;;;7.50;81.70;;;;;;6149568;23;20055;-80
2023/03/07 09:51:44;;;;;;;20.50;8.75;;;7.70;81.90;;;;;;6151413;23;20032;-80
2023/03/07 09:54:13;;;;;;;20.63;8.38;;;7.80;81.30;;;;;;6158728;23;20027;-80
2023/03/07 09:56:56;;;;;;;19.77;6.60;;;7.90;80.70;;;;;;6180863;23;20306;-80
2023/03/07 09:59:38;;;;;;;44.00;8.45;;;7.70;77.90;;;;;;6187407;23;20776;-80
2023/03/07 10:02:18;;;;;;;17.35;7.35;;;7.90;79.00;;;;;;6189478;23;20021;-80
2023/03/07 10:05:07;;;;;;;19.58;7.70;;;8.00;77.80;;;;;;6149821;23;20031;-80
2023/03/07 10:07:35;;;;;;;16.48;7.03;;;7.90;77.20;;;;;;6152021;23;20025;-80
2023/03/07 10:10:36;;;;;;;20.27;8.45;;;8.10;78.30;;;;;;6142489;23;20186;-80
2023/03/07 10:13:17;;;;;;;19.45;7.03;;;8.20;77.70;;;;;;6151561;23;20531;-80
2023/03/07 10:15:54;;;;;;;20.52;6.55;;;8.30;76.60;;;;;;6118625;23;20107;-80
2023/03/07 10:18:40;;;;;;;17.13;6.75;;;8.30;74.80;;;;;;6143687;23;20021;-80
2023/03/07 10:21:37;;;;;;;14.45;6.28;;;8.30;74.20;;;;;;6152097;23;20646;-80
2023/03/07 10:24:28;;;;;;;13.70;6.20;;;8.30;74.00;;;;;;6148713;23;20103;-79
2023/03/07 10:27:05;;;;;;;11.48;5.05;;;8.30;72.40;;;;;;6137374;23;20032;-79
2023/03/07 10:29:46;;;;;;;13.48;5.30;;;8.30;70.70;;;;;;6165392;23;20456;-79
2023/03/07 10:32:57;;;;;;;17.02;6.63;;;8.50;71.20;;;;;;6142789;23;20028;-80
2023/03/07 10:35:39;;;;;;;14.38;5.40;;;8.60;71.60;;;;;;6128419;23;20020;-80
2023/03/07 10:38:34;;;;;;;17.30;6.70;;;9.00;71.90;;;;;;6143610;23;20436;-79
2023/03/07 10:41:13;;;;;;;17.92;6.97;;;8.90;71.40;;;;;;6166585;23;20845;-79
2023/03/07 10:43:43;;;;;;;16.30;6.90;;;9.10;71.30;;;;;;6143574;23;20048;-79
2023/03/07 10:46:13;;;;;;;17.90;7.32;;;9.00;70.90;;;;;;6170629;23;20380;-80
2023/03/07 10:48:55;;;;;;;14.77;5.57;;;9.10;72.10;;;;;;6166477;23;20025;-80
2023/03/07 10:51:49;;;;;;;18.60;6.85;;;9.20;69.30;;;;;;6166340;23;20052;-80
2023/03/07 10:54:21;;;;;;;12.45;5.88;;;9.10;70.20;;;;;;6168932;23;20044;-80
2023/03/07 10:57:08;;;;;;;17.43;6.37;;;9.20;68.50;;;;;;6143632;23;20057;-79
2023/03/07 10:59:42;;;;;;;12.27;5.15;;;8.90;70.30;;;;;;6166774;23;20689;-80
2023/03/07 11:02:22;;;;;;;12.52;5.40;;;8.90;69.50;;;;;;6174885;23;20029;-80
2023/03/07 11:04:52;;;;;;;13.50;5.35;;;8.80;69.80;;;;;;6176589;23;20025;-80
2023/03/07 11:07:34;;;;;;;14.45;5.97;;;8.90;68.40;;;;;;6151904;23;20025;-79
2023/03/07 11:10:24;;;;;;;16.52;6.78;;;9.10;69.40;;;;;;6148916;23;20487;-80
2023/03/07 11:12:58;;;;;;;21.73;9.23;;;9.10;70.40;;;;;;6169387;23;20578;-79
2023/03/07 11:15:26;;;;;;;25.52;9.68;;;9.10;71.40;;;;;;6144707;23;20025;-80
2023/03/07 11:17:53;;;;;;;17.38;7.30;;;9.00;74.00;;;;;;6143802;23;20496;-80
2023/03/07 11:20:30;;;;;;;20.88;10.43;;;8.90;73.40;;;;;;6121051;23;20444;-79
2023/03/07 11:23:25;;;;;;;21.27;9.48;;;8.90;78.30;;;;;;6116220;23;20031;-79
2023/03/07 11:25:54;;;;;;;26.95;11.43;;;9.00;85.00;;;;;;6140034;23;20043;-79
2023/03/07 11:28:33;;;;;;;20.77;8.95;;;8.80;87.00;;;;;;6143970;23;20024;-79
2023/03/07 11:31:17;;;;;;;85.93;37.22;;;8.70;87.90;;;;;;6175538;23;20029;-80
2023/03/07 11:34:12;;;;;;;129.13;56.75;;;8.60;88.80;;;;;;6182461;23;20025;-81
2023/03/07 11:36:43;;;;;;;23.05;10.00;;;8.60;89.30;;;;;;6168947;23;20025;-80
2023/03/07 11:39:42;;;;;;;26.25;11.98;;;8.40;89.00;;;;;;6146534;23;20025;-80
2023/03/07 11:42:21;;;;;;;21.15;8.82;;;8.40;89.40;;;;;;6141405;23;20412;-80
2023/03/07 11:44:55;;;;;;;16.98;8.07;;;8.60;88.30;;;;;;6119126;23;20028;-80
2023/03/07 11:47:46;;;;;;;17.27;7.82;;;8.50;88.20;;;;;;6125000;23;20025;-80
2023/03/07 11:50:21;;;;;;;19.15;8.00;;;8.50;87.60;;;;;;6149890;23;20072;-79
2023/03/07 11:53:04;;;;;;;16.70;6.93;;;8.40;87.10;;;;;;6166151;23;20020;-79
2023/03/07 11:55:44;;;;;;;17.95;6.60;;;8.30;87.00;;;;;;6146614;23;20480;-80
2023/03/07 11:58:27;;;;;;;13.18;5.57;;;8.20;87.40;;;;;;6118108;23;20021;-80
2023/03/07 12:01:15;;;;;;;13.73;5.50;;;8.30;87.30;;;;;;6170547;23;20017;-79
2023/03/07 12:03:49;;;;;;;17.98;6.82;;;8.30;87.60;;;;;;6144849;23;20096;-80
2023/03/07 12:06:42;;;;;;;16.50;7.18;;;8.20;87.20;;;;;;6166538;23;20418;-79
2023/03/07 12:09:22;;;;;;;;;;;8.20;87.60;;;;;;6140467;23;20028;-80
2023/03/07 12:12:09;;;;;;;13.85;5.90;;;7.20;87.00;;;;;;6169686;23;19940;-80
2023/03/07 12:14:55;;;;;;;14.32;5.82;;;8.20;86.00;;;;;;6172581;23;20025;-79
2023/03/07 12:17:35;;;;;;;15.77;6.68;;;8.40;84.70;;;;;;6145736;23;20052;-79
2023/03/07 12:20:15;;;;;;;12.98;4.53;;;8.50;83.90;;;;;;6117839;23;20357;-80
2023/03/07 12:23:00;;;;;;;34.08;15.38;;;8.40;83.50;;;;;;6144212;23;20341;-79
2023/03/07 12:25:28;;;;;;;18.65;8.13;;;8.40;83.60;;;;;;6165433;23;20527;-80
2023/03/07 12:28:25;;;;;;;18.33;9.88;;;8.50;83.60;;;;;;6165678;23;20029;-80
2023/03/07 12:31:11;;;;;;;32.25;14.85;;;8.40;83.50;;;;;;6117598;23;20459;-80
2023/03/07 12:33:51;;;;;;;17.25;6.40;;;8.30;83.80;;;;;;6170818;23;20024;-79
2023/03/07 12:36:41;;;;;;;19.02;8.07;;;8.10;85.30;;;;;;6140909;23;20440;-79
2023/03/07 12:39:34;;;;;;;13.82;5.25;;;6.70;86.10;;;;;;6142663;23;20023;-79
2023/03/07 12:42:23;;;;;;;14.95;6.22;;;8.00;86.50;;;;;;6166115;23;20025;-79
2023/03/07 12:44:57;;;;;;;16.42;6.07;;;7.90;86.70;;;;;;6139418;23;20036;-78
2023/03/07 12:47:41;;;;;;;16.33;7.43;;;8.10;86.10;;;;;;6140826;23;20079;-79
2023/03/07 12:50:25;;;;;;;16.88;6.85;;;8.00;85.60;;;;;;6165784;23;20017;-79
2023/03/07 12:52:59;;;;;;;17.80;6.35;;;8.20;86.20;;;;;;6115301;23;20499;-80
2023/03/07 12:55:35;;;;;;;15.32;6.35;;;8.10;86.00;;;;;;6170460;23;20071;-79
2023/03/07 12:58:33;;;;;;;17.33;7.85;;;7.20;85.00;;;;;;6117383;23;20386;-79
2023/03/07 13:01:04;;;;;;;18.10;7.82;;;8.10;85.80;;;;;;6141910;23;20021;-79
2023/03/07 13:03:52;;;;;;;14.20;5.43;;;8.10;86.10;;;;;;6142551;23;20017;-79
2023/03/07 13:06:21;;;;;;;13.45;5.57;;;8.20;85.70;;;;;;6172206;23;20025;-79
2023/03/07 13:08:52;;;;;;;15.32;5.90;;;8.10;84.00;;;;;;6143736;23;20025;-79
2023/03/07 13:11:25;;;;;;;23.83;8.70;;;8.10;84.00;;;;;;6146231;23;20017;-80
2023/03/07 13:13:58;;;;;;;14.10;5.97;;;7.90;83.60;;;;;;6143228;23;20444;-79
2023/03/07 13:16:45;;;;;;;11.98;5.18;;;8.00;84.00;;;;;;6142719;23;20080;-80
2023/03/07 13:19:34;;;;;;;12.95;5.32;;;8.30;84.70;;;;;;6144083;23;20059;-79
2023/03/07 13:22:13;;;;;;;11.90;5.38;;;7.90;85.40;;;;;;6147615;23;20511;-79
2023/03/07 13:24:43;;;;;;;12.63;4.65;;;7.80;84.90;;;;;;6170091;23;20028;-80
2023/03/07 13:27:24;;;;;;;11.85;5.03;;;8.00;85.10;;;;;;6141812;23;20025;-79
2023/03/07 13:30:07;;;;;;;10.93;4.82;;;7.90;85.30;;;;;;6117231;23;20357;-79
2023/03/07 13:32:50;;;;;;;10.35;4.55;;;7.70;86.50;;;;;;6172632;23;20072;-79
2023/03/07 13:35:26;;;;;;;12.25;4.40;;;7.60;86.30;;;;;;6167623;23;20508;-79
2023/03/07 13:38:02;;;;;;;14.07;4.95;;;7.70;86.70;;;;;;6167244;23;20029;-79
2023/03/07 13:40:48;;;;;;;12.35;5.25;;;7.40;85.80;;;;;;6140064;23;20025;-79
2023/03/07 13:43:19;;;;;;;14.50;4.50;;;7.40;86.20;;;;;;6143108;23;20674;-79
2023/03/07 13:45:49;;;;;;;12.25;5.28;;;7.40;86.90;;;;;;6161243;23;20033;-79
2023/03/07 13:48:25;;;;;;;11.25;3.85;;;7.30;87.00;;;;;;6139165;23;20468;-79
2023/03/07 13:50:53;;;;;;;10.88;4.50;;;7.50;87.50;;;;;;6163921;23;20017;-79
2023/03/07 13:53:32;;;;;;;10.27;4.45;;;7.30;87.70;;;;;;6167997;23;20620;-80
2023/03/07 13:56:14;;;;;;;12.60;4.78;;;7.40;87.50;;;;;;6164364;23;20025;-79
2023/03/07 13:58:47;;;;;;;11.98;4.18;;;7.20;87.90;;;;;;6163264;23;20457;-80
2023/03/07 14:01:20;;;;;;;10.55;3.75;;;7.30;88.70;;;;;;6163814;23;20475;-79
2023/03/07 14:04:02;;;;;;;13.05;5.05;;;7.40;88.70;;;;;;6116228;23;20029;-79
2023/03/07 14:06:39;;;;;;;14.45;5.18;;;7.30;89.00;;;;;;6139546;23;20041;-79
2023/03/07 14:09:11;;;;;;;11.75;5.15;;;7.30;89.50;;;;;;6165532;23;20025;-80
2023/03/07 14:11:48;;;;;;;14.38;6.38;;;7.30;90.20;;;;;;6165280;23;20040;-79
2023/03/07 14:14:27;;;;;;;12.75;4.88;;;7.30;90.60;;;;;;6144846;23;20021;-80
2023/03/07 14:17:15;;;;;;;13.48;5.32;;;7.30;90.80;;;;;;6147380;23;20044;-79
2023/03/07 14:20:12;;;;;;;18.58;7.78;;;7.40;91.20;;;;;;6170739;23;20360;-80
2023/03/07 14:23:03;;;;;;;14.35;6.03;;;7.40;91.40;;;;;;6165727;23;20312;-79
2023/03/07 14:25:40;;;;;;;14.52;5.55;;;7.40;91.50;;;;;;6163627;23;20025;-79
2023/03/07 14:28:34;;;;;;;14.93;5.75;;;7.40;91.90;;;;;;6114472;23;20029;-79
2023/03/07 14:31:04;;;;;;;14.90;6.03;;;7.10;92.40;;;;;;6142954;23;20021;-79
2023/03/07 14:33:34;;;;;;;13.70;5.80;;;7.30;92.80;;;;;;6146475;23;20357;-79
2023/03/07 14:36:17;;;;;;;14.88;5.72;;;7.20;93.10;;;;;;6143507;23;20103;-79
2023/03/07 14:38:49;;;;;;;15.73;6.85;;;7.20;93.50;;;;;;6149437;23;20017;-78
2023/03/07 14:41:38;;;;;;;14.57;6.15;;;7.30;93.70;;;;;;6167195;23;20519;-80
2023/03/07 14:44:36;;;;;;;13.18;4.95;;;7.20;93.70;;;;;;6167673;23;20032;-79
2023/03/07 14:47:25;;;;;;;17.88;6.60;;;7.20;93.80;;;;;;6142650;23;20115;-80
2023/03/07 14:50:16;;;;;;;17.85;6.20;;;7.40;93.60;;;;;;6166817;23;20349;-79
2023/03/07 14:52:44;;;;;;;15.65;7.03;;;7.40;93.60;;;;;;6146744;23;20021;-79
2023/03/07 14:55:18;;;;;;;16.70;6.20;;;7.40;92.90;;;;;;6167942;23;20021;-79
2023/03/07 14:57:51;;;;;;;15.25;6.20;;;7.20;92.30;;;;;;6144881;23;20027;-79
2023/03/07 15:00:19;;;;;;;;;;;7.20;92.60;;;;;;6145187;23;20405;-79
2023/03/07 15:02:47;;;;;;;11.45;5.47;;;7.30;92.80;;;;;;6116533;23;19920;-79
2023/03/07 15:05:20;;;;;;;12.77;5.13;;;7.10;93.10;;;;;;6140905;23;20103;-79
2023/03/07 15:07:48;;;;;;;13.25;5.78;;;7.20;93.50;;;;;;6165140;23;20116;-79
2023/03/07 15:10:22;;;;;;;14.60;5.40;;;7.20;93.40;;;;;;6145638;23;20400;-79
2023/03/07 15:12:53;;;;;;;14.00;5.03;;;7.10;93.30;;;;;;6145788;23;20020;-79
2023/03/07 15:15:26;;;;;;;14.48;5.30;;;7.10;93.20;;;;;;6165084;23;20194;-79
2023/03/07 15:17:55;;;;;;;;;;;7.00;93.30;;;;;;6165275;23;20013;-80
2023/03/07 15:20:25;;;;;;;10.65;4.45;;;7.00;93.30;;;;;;6141697;23;20371;-80
2023/03/07 15:23:20;;;;;;;18.38;8.07;;;7.10;93.40;;;;;;6165272;23;20465;-80
2023/03/07 15:25:48;;;;;;;16.13;6.93;;;7.10;93.50;;;;;;6122700;23;20449;-79
2023/03/07 15:28:22;;;;;;;13.05;5.45;;;7.00;93.70;;;;;;6154601;23;20029;-79
2023/03/07 15:30:51;;;;;;;13.40;4.78;;;6.90;93.70;;;;;;6163674;23;20104;-80
2023/03/07 15:33:22;;;;;;;17.02;4.80;;;6.80;93.80;;;;;;6182095;23;20480;-80
2023/03/07 15:36:16;;;;;;;15.25;5.05;;;6.80;93.80;;;;;;6155624;23;20025;-80
2023/03/07 15:38:48;;;;;;;13.07;4.72;;;6.90;94.00;;;;;;6175745;23;20525;-80
2023/03/07 15:41:32;;;;;;;10.90;5.13;;;6.80;94.10;;;;;;6121620;23;20452;-80
2023/03/07 15:44:16;;;;;;;16.15;5.32;;;6.80;94.50;;;;;;6144342;23;20060;-80
2023/03/07 15:46:52;;;;;;;15.98;6.15;;;6.80;94.50;;;;;;6146410;23;20032;-80
2023/03/07 15:49:41;;;;;;;14.00;6.07;;;6.80;94.70;;;;;;6122902;23;20021;-79
2023/03/07 15:52:38;;;;;;;17.05;6.40;;;6.60;94.50;;;;;;6155897;23;20052;-80
2023/03/07 15:55:15;;;;;;;16.63;6.60;;;6.50;94.40;;;;;;6151591;23;20652;-80
2023/03/07 15:57:57;;;;;;;13.50;5.28;;;6.90;94.70;;;;;;6148507;23;20017;-80
2023/03/07 16:00:36;;;;;;;12.93;4.95;;;6.90;95.00;;;;;;6171122;23;20021;-80
2023/03/07 16:03:23;;;;;;;15.20;6.03;;;6.90;95.00;;;;;;6146936;23;20028;-80
2023/03/07 16:05:52;;;;;;;14.23;5.68;;;6.70;94.80;;;;;;6119127;23;20029;-79
2023/03/07 16:08:20;;;;;;;21.17;7.15;;;6.30;94.60;;;;;;6166941;23;20471;-80
2023/03/07 16:10:52;;;;;;;17.35;5.72;;;6.70;94.90;;;;;;6143125;23;20532;-80
2023/03/07 16:13:22;;;;;;;14.23;5.60;;;6.70;95.10;;;;;;6126888;23;20484;-80
2023/03/07 16:16:00;;;;;;;15.98;6.45;;;6.70;95.10;;;;;;6168226;23;20267;-80
2023/03/07 16:18:29;;;;;;;18.67;6.85;;;6.70;95.20;;;;;;6145498;23;20445;-80
2023/03/07 16:20:57;;;;;;;15.90;5.07;;;6.70;95.30;;;;;;6169707;23;20040;-80
2023/03/07 16:23:29;;;;;;;22.77;8.30;;;6.70;95.30;;;;;;6120967;23;20091;-80
2023/03/07 16:26:01;;;;;;;20.83;8.10;;;6.70;95.40;;;;;;6143408;23;20033;-80
2023/03/07 16:28:29;;;;;;;19.45;7.68;;;6.50;95.30;;;;;;6121999;23;20149;-82
2023/03/07 16:30:58;;;;;;;17.75;7.03;;;6.80;95.50;;;;;;6168015;23;20551;-79
2023/03/07 16:33:26;;;;;;;14.85;5.93;;;6.80;95.50;;;;;;6167672;23;20020;-80
2023/03/07 16:35:54;;;;;;;12.20;5.20;;;6.50;95.40;;;;;;6169393;23;20028;-79
2023/03/07 16:38:24;;;;;;;12.52;5.45;;;6.40;95.40;;;;;;6119081;23;20023;-79
2023/03/07 16:40:51;;;;;;;14.95;4.68;;;6.50;95.50;;;;;;6172599;23;20032;-80
2023/03/07 16:43:31;;;;;;;14.25;5.38;;;6.20;95.40;;;;;;6145326;23;20032;-80
2023/03/07 16:46:01;;;;;;;15.32;5.95;;;6.50;95.40;;;;;;6119407;23;20021;-80
2023/03/07 16:48:29;;;;;;;20.67;7.32;;;6.30;95.50;;;;;;6143250;23;20164;-80
2023/03/07 16:50:57;;;;;;;19.02;7.65;;;6.50;95.80;;;;;;6155561;23;20603;-80
2023/03/07 16:53:25;;;;;;;20.45;8.07;;;6.40;95.90;;;;;;6144556;23;20731;-80
2023/03/07 16:55:55;;;;;;;18.83;7.97;;;6.30;95.90;;;;;;6169100;23;20027;-80
2023/03/07 16:58:31;;;;;;;22.55;9.10;;;6.30;96.00;;;;;;6146094;23;20108;-80
2023/03/07 17:01:01;;;;;;;23.50;9.43;;;6.40;96.00;;;;;;6147506;23;20454;-79
2023/03/07 17:03:29;;;;;;;21.85;9.52;;;6.00;96.10;;;;;;6167588;23;20056;-79
2023/03/07 17:05:57;;;;;;;24.63;10.90;;;6.40;96.20;;;;;;6119197;23;20025;-79